Airfield :
LOGIN :

Register | Disclaimer

   EN    FR    IT 

 










Legend :    VFR   Marginal VFR   IFR   Intensive IFR   Very Intensive IFR
Visi :
Ceiling :
>= 8 km
>= 3000ft
5 to 8 km
1000 to 3000 ft
1500m to 5 km
500 to 1000 ft
800 to 1500m
200 to 500 ft
< 800m
< 200 ft
Symbols :   Thunderstorms  Fog  Heavy snow  Heavy precipitations  Wind > 20 kt
SIGMETs :     Misc.  Thunderstorms  Icing  Turbulence  Mountain Waves  Volcanic Ashes






- Airport Elevation : 3 ft
- IATA code : LWR


EHLW - Leuuwarden Air Base

CURRENT METAR :
  • 210525Z AUTO 03011KT 360V070 9000 -RA FEW014 BKN015CB BKN036 BKN042 11/11 Q1013 WHT 03013KT 5500 SCT008 BKN023 BKN044 RMK TS INFO NOT AVBL

EXPIRED METARs :
  • 210510Z AUTO 03013KT 6000 -SHRA BKN015CB SCT023 BKN042 BKN046 11/10 Q1013 WHT 03013KT 5500 SCT008 BKN023 BKN044 RMK TS INFO NOT AVBL
  • 210455Z AUTO 04012KT 8000 -SHRA FEW010 SCT015CB OVC021 11/10 Q1013 REDZ WHT RMK TS INFO NOT AVBL
  • 210432Z AUTO 04010KT 360V060 9999 DZRA FEW011 SCT015CB BKN027 OVC038 11/10 Q1013 WHT
  • 210408Z AUTO 05011KT 360V100 9999 -RA FEW015CB BKN044 OVC048 12/10 Q1013 BLU
  • 210402Z AUTO 06012KT 010V110 9000 DZRA FEW015CB SCT045 OVC050 12/11 Q1013 BLU
  • 210355Z AUTO 06012KT 340V130 9000 -RA FEW015CB SCT041 BKN047 12/11 Q1013 RERA REDZ BLU
  • 210344Z AUTO 07012KT 010V130 6000 RADZ FEW015CB BKN022 OVC025 12/11 Q1013 WHT
  • 210333Z AUTO VRB11KT 5000 -RADZ FEW005 FEW015CB SCT018 OVC023 12/11 Q1013 WHT
  • 210321Z AUTO 06008KT 360V110 7000 BR FEW007 BKN014 BKN017 12/11 Q1013 GRN
  • 210307Z AUTO 06009KT 350V110 9000 BR FEW008 SCT009 BKN011 12/11 Q1013 GRN
  • 210300Z AUTO 06010KT 360V120 8000 BR FEW009 SCT013 OVC092 12/11 Q1013 GRN
  • 210255Z AUTO 05010KT 010V100 9000 BR FEW010 OVC094 12/11 Q1013 BLU
  • 210238Z AUTO 05010KT 360V080 8000 BR FEW073 BKN080 OVC086 12/11 Q1013 BLU
  • 210225Z AUTO 04008KT 8000 BR OVC055 12/11 Q1013 BLU

TAF TAF EHLW
Valid from the 21 at 05:00 until the 21 at 17:00 UTC


210414Z 2105/2117 06011KT 9999 SCT025 BKN045
BECMG 2107/2109 BKN006
TEMPO 2107/2114 3000 DZRA BKN003
PROB40
TEMPO 2108/2114 1500 BR BKN001
BECMG 2111/2113 20007KT
BECMG 2115/2117 SCT015 BKN020



MET'MAP, your aeronautical weather chart ! - Copyright ORBIFLY December 2007 - Disclaimer

ORBIFLY MET'MAP TEAM :

Programming & Development : Alexandra Zaïnal
Concept & Development : Baudouin d'Aumeries
Co-Development & Prog : Marc-Olivier Méhu
Technical & hardware support : Manuel Goepfert

Contact : metmap@orbifly.com




SOURCES & CREDITS :

   NOAA